sensor_id;sensor_type;location;lat;lon;timestamp;P1;durP1;ratioP1;P2;durP2;ratioP2
8050;SDS011;4068;42.158;24.732;2022-07-29T00:00:09;4.28;;;3.33;;
8050;SDS011;4068;42.158;24.732;2022-07-29T00:02:36;7.57;;;4.30;;
8050;SDS011;4068;42.158;24.732;2022-07-29T00:05:02;6.35;;;3.80;;
8050;SDS011;4068;42.158;24.732;2022-07-29T00:07:28;6.95;;;4.97;;
8050;SDS011;4068;42.158;24.732;2022-07-29T00:09:54;6.95;;;4.40;;
8050;SDS011;4068;42.158;24.732;2022-07-29T00:12:20;8.95;;;4.10;;
8050;SDS011;4068;42.158;24.732;2022-07-29T00:14:46;9.27;;;4.80;;
8050;SDS011;4068;42.158;24.732;2022-07-29T00:17:12;5.18;;;3.83;;
8050;SDS011;4068;42.158;24.732;2022-07-29T00:19:37;5.07;;;4.22;;
8050;SDS011;4068;42.158;24.732;2022-07-29T00:22:02;5.40;;;4.05;;
8050;SDS011;4068;42.158;24.732;2022-07-29T00:24:28;11.80;;;4.05;;
8050;SDS011;4068;42.158;24.732;2022-07-29T00:26:53;5.90;;;4.30;;
8050;SDS011;4068;42.158;24.732;2022-07-29T00:29:19;6.07;;;4.45;;
8050;SDS011;4068;42.158;24.732;2022-07-29T00:31:44;6.30;;;4.10;;
8050;SDS011;4068;42.158;24.732;2022-07-29T00:34:10;5.32;;;4.45;;
8050;SDS011;4068;42.158;24.732;2022-07-29T00:36:54;7.88;;;4.10;;
8050;SDS011;4068;42.158;24.732;2022-07-29T00:39:20;8.38;;;4.18;;
8050;SDS011;4068;42.158;24.732;2022-07-29T00:41:45;5.35;;;4.55;;
8050;SDS011;4068;42.158;24.732;2022-07-29T00:44:11;7.20;;;4.28;;
8050;SDS011;4068;42.158;24.732;2022-07-29T00:46:36;5.10;;;4.07;;
8050;SDS011;4068;42.158;24.732;2022-07-29T00:49:01;6.05;;;4.32;;
8050;SDS011;4068;42.158;24.732;2022-07-29T00:51:27;5.10;;;4.40;;
8050;SDS011;4068;42.158;24.732;2022-07-29T00:53:53;5.78;;;4.40;;
8050;SDS011;4068;42.158;24.732;2022-07-29T00:56:18;8.15;;;4.10;;
8050;SDS011;4068;42.158;24.732;2022-07-29T00:58:44;6.55;;;4.28;;
8050;SDS011;4068;42.158;24.732;2022-07-29T01:01:11;4.82;;;4.20;;
8050;SDS011;4068;42.158;24.732;2022-07-29T01:03:37;7.03;;;4.63;;
8050;SDS011;4068;42.158;24.732;2022-07-29T01:06:03;5.95;;;4.45;;
8050;SDS011;4068;42.158;24.732;2022-07-29T01:08:29;6.97;;;4.60;;
8050;SDS011;4068;42.158;24.732;2022-07-29T01:10:57;6.72;;;4.55;;
8050;SDS011;4068;42.158;24.732;2022-07-29T01:13:24;6.78;;;5.38;;
8050;SDS011;4068;42.158;24.732;2022-07-29T01:15:54;5.75;;;4.80;;
8050;SDS011;4068;42.158;24.732;2022-07-29T01:18:32;8.52;;;5.07;;
8050;SDS011;4068;42.158;24.732;2022-07-29T01:21:11;7.05;;;5.00;;
8050;SDS011;4068;42.158;24.732;2022-07-29T01:29:18;6.18;;;5.13;;
8050;SDS011;4068;42.158;24.732;2022-07-29T01:32:06;8.98;;;5.80;;
8050;SDS011;4068;42.158;24.732;2022-07-29T01:37:08;6.30;;;5.55;;
8050;SDS011;4068;42.158;24.732;2022-07-29T01:39:43;8.52;;;5.53;;
8050;SDS011;4068;42.158;24.732;2022-07-29T01:42:20;7.80;;;5.05;;
8050;SDS011;4068;42.158;24.732;2022-07-29T01:47:37;7.65;;;4.80;;
8050;SDS011;4068;42.158;24.732;2022-07-29T01:50:10;8.80;;;5.20;;
8050;SDS011;4068;42.158;24.732;2022-07-29T01:52:42;7.32;;;4.88;;
8050;SDS011;4068;42.158;24.732;2022-07-29T01:55:13;8.80;;;5.00;;
8050;SDS011;4068;42.158;24.732;2022-07-29T01:57:42;10.90;;;5.60;;
8050;SDS011;4068;42.158;24.732;2022-07-29T02:00:10;7.47;;;5.40;;
8050;SDS011;4068;42.158;24.732;2022-07-29T02:02:38;6.53;;;4.63;;
8050;SDS011;4068;42.158;24.732;2022-07-29T02:05:06;9.60;;;5.38;;
8050;SDS011;4068;42.158;24.732;2022-07-29T02:07:34;6.97;;;5.00;;
8050;SDS011;4068;42.158;24.732;2022-07-29T02:10:02;6.75;;;5.05;;
8050;SDS011;4068;42.158;24.732;2022-07-29T02:12:29;12.32;;;5.18;;
8050;SDS011;4068;42.158;24.732;2022-07-29T02:14:56;8.82;;;5.45;;
8050;SDS011;4068;42.158;24.732;2022-07-29T02:17:27;8.63;;;5.40;;
8050;SDS011;4068;42.158;24.732;2022-07-29T02:19:59;10.25;;;5.40;;
8050;SDS011;4068;42.158;24.732;2022-07-29T02:22:26;6.38;;;5.18;;
8050;SDS011;4068;42.158;24.732;2022-07-29T02:24:55;11.63;;;5.70;;
8050;SDS011;4068;42.158;24.732;2022-07-29T02:27:22;7.25;;;5.45;;
8050;SDS011;4068;42.158;24.732;2022-07-29T02:29:48;7.00;;;5.53;;
8050;SDS011;4068;42.158;24.732;2022-07-29T02:32:16;7.55;;;5.40;;
8050;SDS011;4068;42.158;24.732;2022-07-29T02:34:44;6.60;;;5.43;;
8050;SDS011;4068;42.158;24.732;2022-07-29T02:37:11;6.05;;;5.13;;
8050;SDS011;4068;42.158;24.732;2022-07-29T02:39:39;8.20;;;5.90;;
8050;SDS011;4068;42.158;24.732;2022-07-29T02:42:07;13.25;;;5.95;;
8050;SDS011;4068;42.158;24.732;2022-07-29T02:44:37;11.85;;;5.85;;
8050;SDS011;4068;42.158;24.732;2022-07-29T02:47:20;9.55;;;5.82;;
8050;SDS011;4068;42.158;24.732;2022-07-29T02:54:46;8.68;;;5.30;;
8050;SDS011;4068;42.158;24.732;2022-07-29T02:57:20;11.57;;;7.07;;
8050;SDS011;4068;42.158;24.732;2022-07-29T02:59:52;9.52;;;5.63;;
8050;SDS011;4068;42.158;24.732;2022-07-29T03:02:22;9.20;;;5.35;;
8050;SDS011;4068;42.158;24.732;2022-07-29T03:04:48;7.78;;;5.45;;
8050;SDS011;4068;42.158;24.732;2022-07-29T03:07:18;9.02;;;5.80;;
8050;SDS011;4068;42.158;24.732;2022-07-29T03:09:45;7.53;;;5.80;;
8050;SDS011;4068;42.158;24.732;2022-07-29T03:12:11;9.63;;;5.57;;
8050;SDS011;4068;42.158;24.732;2022-07-29T03:14:37;12.13;;;6.53;;
8050;SDS011;4068;42.158;24.732;2022-07-29T03:17:03;6.63;;;5.88;;
8050;SDS011;4068;42.158;24.732;2022-07-29T03:19:29;11.07;;;6.35;;
8050;SDS011;4068;42.158;24.732;2022-07-29T03:21:57;13.23;;;6.28;;
8050;SDS011;4068;42.158;24.732;2022-07-29T03:24:33;10.15;;;6.35;;
8050;SDS011;4068;42.158;24.732;2022-07-29T03:27:00;8.25;;;6.18;;
8050;SDS011;4068;42.158;24.732;2022-07-29T03:29:26;9.43;;;6.18;;
8050;SDS011;4068;42.158;24.732;2022-07-29T03:31:52;9.02;;;5.65;;
8050;SDS011;4068;42.158;24.732;2022-07-29T03:34:17;7.53;;;5.68;;
8050;SDS011;4068;42.158;24.732;2022-07-29T03:36:43;9.38;;;5.60;;
8050;SDS011;4068;42.158;24.732;2022-07-29T03:39:09;9.85;;;6.38;;
8050;SDS011;4068;42.158;24.732;2022-07-29T03:41:36;8.75;;;5.68;;
8050;SDS011;4068;42.158;24.732;2022-07-29T03:44:06;8.07;;;6.32;;
8050;SDS011;4068;42.158;24.732;2022-07-29T03:46:33;9.07;;;6.13;;
8050;SDS011;4068;42.158;24.732;2022-07-29T03:49:00;7.68;;;6.38;;
8050;SDS011;4068;42.158;24.732;2022-07-29T03:51:29;17.63;;;8.57;;
8050;SDS011;4068;42.158;24.732;2022-07-29T03:53:55;10.98;;;7.43;;
8050;SDS011;4068;42.158;24.732;2022-07-29T03:56:21;9.25;;;7.00;;
8050;SDS011;4068;42.158;24.732;2022-07-29T03:58:51;10.48;;;7.22;;
8050;SDS011;4068;42.158;24.732;2022-07-29T04:01:18;12.82;;;7.45;;
8050;SDS011;4068;42.158;24.732;2022-07-29T04:03:45;20.58;;;8.13;;
8050;SDS011;4068;42.158;24.732;2022-07-29T04:06:11;14.02;;;6.90;;
8050;SDS011;4068;42.158;24.732;2022-07-29T04:08:37;7.47;;;5.97;;
8050;SDS011;4068;42.158;24.732;2022-07-29T04:11:03;8.38;;;6.63;;
8050;SDS011;4068;42.158;24.732;2022-07-29T04:13:30;10.77;;;6.95;;
8050;SDS011;4068;42.158;24.732;2022-07-29T04:15:56;12.15;;;6.15;;
8050;SDS011;4068;42.158;24.732;2022-07-29T04:18:22;9.77;;;6.65;;
8050;SDS011;4068;42.158;24.732;2022-07-29T04:20:47;8.80;;;6.40;;
8050;SDS011;4068;42.158;24.732;2022-07-29T04:23:12;10.95;;;6.43;;
8050;SDS011;4068;42.158;24.732;2022-07-29T04:25:38;8.95;;;6.50;;
8050;SDS011;4068;42.158;24.732;2022-07-29T04:28:04;8.20;;;5.93;;
8050;SDS011;4068;42.158;24.732;2022-07-29T04:30:31;11.55;;;6.43;;
8050;SDS011;4068;42.158;24.732;2022-07-29T04:32:57;9.85;;;6.25;;
8050;SDS011;4068;42.158;24.732;2022-07-29T04:35:23;9.43;;;6.55;;
8050;SDS011;4068;42.158;24.732;2022-07-29T04:37:49;10.57;;;6.93;;
8050;SDS011;4068;42.158;24.732;2022-07-29T04:40:14;10.25;;;6.40;;
8050;SDS011;4068;42.158;24.732;2022-07-29T04:42:40;10.90;;;6.57;;
8050;SDS011;4068;42.158;24.732;2022-07-29T04:45:05;8.45;;;6.22;;
8050;SDS011;4068;42.158;24.732;2022-07-29T04:47:31;17.35;;;7.30;;
8050;SDS011;4068;42.158;24.732;2022-07-29T04:49:56;10.27;;;6.70;;
8050;SDS011;4068;42.158;24.732;2022-07-29T04:52:22;12.88;;;6.97;;
8050;SDS011;4068;42.158;24.732;2022-07-29T04:54:48;8.38;;;5.95;;
8050;SDS011;4068;42.158;24.732;2022-07-29T04:57:14;8.27;;;6.05;;
8050;SDS011;4068;42.158;24.732;2022-07-29T04:59:39;10.63;;;6.20;;
8050;SDS011;4068;42.158;24.732;2022-07-29T05:02:05;8.13;;;6.55;;
8050;SDS011;4068;42.158;24.732;2022-07-29T05:04:30;9.25;;;5.88;;
8050;SDS011;4068;42.158;24.732;2022-07-29T05:06:56;8.35;;;6.18;;
8050;SDS011;4068;42.158;24.732;2022-07-29T05:09:21;8.55;;;5.50;;
8050;SDS011;4068;42.158;24.732;2022-07-29T05:11:46;8.25;;;5.88;;
8050;SDS011;4068;42.158;24.732;2022-07-29T05:14:12;8.23;;;6.20;;
8050;SDS011;4068;42.158;24.732;2022-07-29T05:16:37;7.05;;;6.35;;
8050;SDS011;4068;42.158;24.732;2022-07-29T05:19:05;9.00;;;6.80;;
8050;SDS011;4068;42.158;24.732;2022-07-29T05:21:30;8.10;;;5.72;;
8050;SDS011;4068;42.158;24.732;2022-07-29T05:23:56;10.50;;;6.22;;
8050;SDS011;4068;42.158;24.732;2022-07-29T05:26:21;8.55;;;6.00;;
8050;SDS011;4068;42.158;24.732;2022-07-29T05:28:47;6.63;;;5.93;;
8050;SDS011;4068;42.158;24.732;2022-07-29T05:31:12;8.40;;;6.22;;
8050;SDS011;4068;42.158;24.732;2022-07-29T05:33:39;9.48;;;5.75;;
8050;SDS011;4068;42.158;24.732;2022-07-29T05:36:06;8.48;;;5.75;;
8050;SDS011;4068;42.158;24.732;2022-07-29T05:38:32;12.38;;;5.75;;
8050;SDS011;4068;42.158;24.732;2022-07-29T05:40:58;6.25;;;5.30;;
8050;SDS011;4068;42.158;24.732;2022-07-29T05:43:24;6.60;;;5.25;;
8050;SDS011;4068;42.158;24.732;2022-07-29T05:45:52;5.95;;;5.35;;
8050;SDS011;4068;42.158;24.732;2022-07-29T05:48:17;8.27;;;5.35;;
8050;SDS011;4068;42.158;24.732;2022-07-29T05:50:42;12.07;;;5.57;;
8050;SDS011;4068;42.158;24.732;2022-07-29T05:53:08;7.22;;;6.00;;
8050;SDS011;4068;42.158;24.732;2022-07-29T05:55:33;8.35;;;6.15;;
8050;SDS011;4068;42.158;24.732;2022-07-29T05:57:59;10.05;;;6.20;;
8050;SDS011;4068;42.158;24.732;2022-07-29T06:00:24;10.15;;;5.63;;
8050;SDS011;4068;42.158;24.732;2022-07-29T06:02:50;7.30;;;6.38;;
8050;SDS011;4068;42.158;24.732;2022-07-29T06:05:15;7.13;;;5.85;;
8050;SDS011;4068;42.158;24.732;2022-07-29T06:07:40;12.38;;;6.40;;
8050;SDS011;4068;42.158;24.732;2022-07-29T06:10:06;9.32;;;6.63;;
8050;SDS011;4068;42.158;24.732;2022-07-29T06:12:32;7.88;;;7.00;;
8050;SDS011;4068;42.158;24.732;2022-07-29T06:14:57;8.80;;;7.30;;
8050;SDS011;4068;42.158;24.732;2022-07-29T06:17:23;10.23;;;6.88;;
8050;SDS011;4068;42.158;24.732;2022-07-29T06:19:48;11.77;;;6.93;;
8050;SDS011;4068;42.158;24.732;2022-07-29T06:22:17;10.63;;;6.63;;
8050;SDS011;4068;42.158;24.732;2022-07-29T06:24:42;10.35;;;7.30;;
8050;SDS011;4068;42.158;24.732;2022-07-29T06:27:09;7.68;;;6.30;;
8050;SDS011;4068;42.158;24.732;2022-07-29T06:29:35;12.75;;;7.65;;
8050;SDS011;4068;42.158;24.732;2022-07-29T06:32:01;6.95;;;6.20;;
8050;SDS011;4068;42.158;24.732;2022-07-29T06:34:27;8.05;;;6.57;;
8050;SDS011;4068;42.158;24.732;2022-07-29T06:36:52;6.82;;;6.13;;
8050;SDS011;4068;42.158;24.732;2022-07-29T06:39:18;7.80;;;6.53;;
8050;SDS011;4068;42.158;24.732;2022-07-29T06:41:46;11.68;;;6.90;;
8050;SDS011;4068;42.158;24.732;2022-07-29T06:44:13;6.88;;;6.18;;
8050;SDS011;4068;42.158;24.732;2022-07-29T06:46:39;8.45;;;6.45;;
8050;SDS011;4068;42.158;24.732;2022-07-29T06:49:04;10.68;;;6.75;;
8050;SDS011;4068;42.158;24.732;2022-07-29T06:51:30;7.82;;;6.95;;
8050;SDS011;4068;42.158;24.732;2022-07-29T06:53:55;10.43;;;6.68;;
8050;SDS011;4068;42.158;24.732;2022-07-29T06:56:22;9.80;;;6.88;;
8050;SDS011;4068;42.158;24.732;2022-07-29T06:58:48;11.23;;;6.88;;
8050;SDS011;4068;42.158;24.732;2022-07-29T07:01:13;10.70;;;7.03;;
8050;SDS011;4068;42.158;24.732;2022-07-29T07:03:39;8.35;;;6.88;;
8050;SDS011;4068;42.158;24.732;2022-07-29T07:06:04;7.78;;;6.18;;
8050;SDS011;4068;42.158;24.732;2022-07-29T07:08:29;9.00;;;6.65;;
8050;SDS011;4068;42.158;24.732;2022-07-29T07:10:55;9.38;;;7.05;;
8050;SDS011;4068;42.158;24.732;2022-07-29T07:13:22;10.50;;;6.53;;
8050;SDS011;4068;42.158;24.732;2022-07-29T07:15:48;13.70;;;7.32;;
8050;SDS011;4068;42.158;24.732;2022-07-29T07:18:14;10.70;;;7.47;;
8050;SDS011;4068;42.158;24.732;2022-07-29T07:20:40;8.40;;;6.40;;
8050;SDS011;4068;42.158;24.732;2022-07-29T07:23:06;7.55;;;6.75;;
8050;SDS011;4068;42.158;24.732;2022-07-29T07:25:31;9.02;;;6.35;;
8050;SDS011;4068;42.158;24.732;2022-07-29T07:27:57;9.60;;;6.38;;
8050;SDS011;4068;42.158;24.732;2022-07-29T07:30:22;9.93;;;6.35;;
8050;SDS011;4068;42.158;24.732;2022-07-29T07:32:48;8.40;;;6.50;;
8050;SDS011;4068;42.158;24.732;2022-07-29T07:35:14;7.45;;;6.43;;
8050;SDS011;4068;42.158;24.732;2022-07-29T07:37:39;8.93;;;6.35;;
8050;SDS011;4068;42.158;24.732;2022-07-29T07:40:08;7.78;;;6.97;;
8050;SDS011;4068;42.158;24.732;2022-07-29T07:42:36;12.25;;;7.82;;
8050;SDS011;4068;42.158;24.732;2022-07-29T07:45:03;10.65;;;8.07;;
8050;SDS011;4068;42.158;24.732;2022-07-29T07:47:29;9.93;;;6.78;;
8050;SDS011;4068;42.158;24.732;2022-07-29T07:49:55;10.65;;;6.65;;
8050;SDS011;4068;42.158;24.732;2022-07-29T07:52:21;8.07;;;6.05;;
8050;SDS011;4068;42.158;24.732;2022-07-29T07:54:47;8.85;;;6.60;;
8050;SDS011;4068;42.158;24.732;2022-07-29T07:57:13;6.85;;;5.88;;
8050;SDS011;4068;42.158;24.732;2022-07-29T07:59:39;8.82;;;5.95;;
8050;SDS011;4068;42.158;24.732;2022-07-29T08:02:04;9.48;;;6.15;;
8050;SDS011;4068;42.158;24.732;2022-07-29T08:04:30;9.75;;;6.38;;
8050;SDS011;4068;42.158;24.732;2022-07-29T08:06:56;8.23;;;6.20;;
8050;SDS011;4068;42.158;24.732;2022-07-29T08:09:23;8.48;;;5.88;;
8050;SDS011;4068;42.158;24.732;2022-07-29T08:11:50;11.52;;;6.68;;
8050;SDS011;4068;42.158;24.732;2022-07-29T08:14:16;7.90;;;5.53;;
8050;SDS011;4068;42.158;24.732;2022-07-29T08:16:42;7.30;;;5.43;;
8050;SDS011;4068;42.158;24.732;2022-07-29T08:19:07;8.07;;;5.00;;
8050;SDS011;4068;42.158;24.732;2022-07-29T08:21:34;7.88;;;5.32;;
8050;SDS011;4068;42.158;24.732;2022-07-29T08:24:00;5.78;;;4.65;;
8050;SDS011;4068;42.158;24.732;2022-07-29T08:26:44;6.60;;;4.93;;
8050;SDS011;4068;42.158;24.732;2022-07-29T08:29:09;8.27;;;5.38;;
8050;SDS011;4068;42.158;24.732;2022-07-29T08:31:36;6.95;;;4.97;;
8050;SDS011;4068;42.158;24.732;2022-07-29T08:34:02;6.07;;;4.93;;
8050;SDS011;4068;42.158;24.732;2022-07-29T08:36:28;5.20;;;4.70;;
8050;SDS011;4068;42.158;24.732;2022-07-29T08:38:54;5.55;;;4.82;;
8050;SDS011;4068;42.158;24.732;2022-07-29T08:41:19;7.13;;;4.75;;
8050;SDS011;4068;42.158;24.732;2022-07-29T08:43:45;7.15;;;4.40;;
8050;SDS011;4068;42.158;24.732;2022-07-29T08:46:11;5.07;;;4.40;;
8050;SDS011;4068;42.158;24.732;2022-07-29T08:48:37;7.13;;;4.20;;
8050;SDS011;4068;42.158;24.732;2022-07-29T08:51:04;4.80;;;4.40;;
8050;SDS011;4068;42.158;24.732;2022-07-29T08:53:32;7.32;;;4.60;;
8050;SDS011;4068;42.158;24.732;2022-07-29T08:55:58;5.20;;;4.50;;
8050;SDS011;4068;42.158;24.732;2022-07-29T08:58:24;8.13;;;4.00;;
8050;SDS011;4068;42.158;24.732;2022-07-29T09:00:52;6.53;;;4.40;;
8050;SDS011;4068;42.158;24.732;2022-07-29T09:03:19;4.72;;;4.28;;
8050;SDS011;4068;42.158;24.732;2022-07-29T09:05:47;7.10;;;3.90;;
8050;SDS011;4068;42.158;24.732;2022-07-29T09:08:14;7.60;;;4.10;;
8050;SDS011;4068;42.158;24.732;2022-07-29T09:10:40;7.25;;;4.43;;
8050;SDS011;4068;42.158;24.732;2022-07-29T09:13:06;10.10;;;4.13;;
8050;SDS011;4068;42.158;24.732;2022-07-29T09:15:31;6.38;;;4.05;;
8050;SDS011;4068;42.158;24.732;2022-07-29T09:17:57;9.32;;;4.50;;
8050;SDS011;4068;42.158;24.732;2022-07-29T09:20:24;5.65;;;4.10;;
8050;SDS011;4068;42.158;24.732;2022-07-29T09:22:50;7.45;;;3.80;;
8050;SDS011;4068;42.158;24.732;2022-07-29T09:25:37;5.50;;;3.38;;
8050;SDS011;4068;42.158;24.732;2022-07-29T09:30:49;4.05;;;3.65;;
8050;SDS011;4068;42.158;24.732;2022-07-29T09:33:17;5.93;;;3.88;;
8050;SDS011;4068;42.158;24.732;2022-07-29T09:35:42;13.88;;;5.40;;
8050;SDS011;4068;42.158;24.732;2022-07-29T09:38:11;6.55;;;4.03;;
8050;SDS011;4068;42.158;24.732;2022-07-29T09:40:38;6.55;;;4.32;;
8050;SDS011;4068;42.158;24.732;2022-07-29T09:43:13;6.50;;;3.90;;
8050;SDS011;4068;42.158;24.732;2022-07-29T09:45:39;4.70;;;3.80;;
8050;SDS011;4068;42.158;24.732;2022-07-29T09:48:15;5.32;;;3.83;;
8050;SDS011;4068;42.158;24.732;2022-07-29T09:50:43;6.30;;;3.80;;
8050;SDS011;4068;42.158;24.732;2022-07-29T09:53:10;4.65;;;3.65;;
8050;SDS011;4068;42.158;24.732;2022-07-29T09:55:48;6.43;;;3.63;;
8050;SDS011;4068;42.158;24.732;2022-07-29T09:58:18;4.85;;;4.35;;
8050;SDS011;4068;42.158;24.732;2022-07-29T10:00:45;5.55;;;4.15;;
8050;SDS011;4068;42.158;24.732;2022-07-29T10:03:11;4.78;;;4.05;;
8050;SDS011;4068;42.158;24.732;2022-07-29T10:05:38;3.95;;;3.58;;
8050;SDS011;4068;42.158;24.732;2022-07-29T10:08:04;3.92;;;3.53;;
8050;SDS011;4068;42.158;24.732;2022-07-29T10:10:33;4.03;;;3.33;;
8050;SDS011;4068;42.158;24.732;2022-07-29T10:13:05;5.22;;;4.20;;
8050;SDS011;4068;42.158;24.732;2022-07-29T10:15:35;5.38;;;3.55;;
8050;SDS011;4068;42.158;24.732;2022-07-29T10:18:04;4.20;;;3.70;;
8050;SDS011;4068;42.158;24.732;2022-07-29T10:20:29;4.65;;;4.18;;
8050;SDS011;4068;42.158;24.732;2022-07-29T10:22:55;7.32;;;3.58;;
8050;SDS011;4068;42.158;24.732;2022-07-29T10:25:21;3.80;;;3.42;;
8050;SDS011;4068;42.158;24.732;2022-07-29T10:27:48;3.80;;;3.47;;
8050;SDS011;4068;42.158;24.732;2022-07-29T10:30:16;5.15;;;4.10;;
8050;SDS011;4068;42.158;24.732;2022-07-29T10:44:19;3.80;;;3.50;;
8050;SDS011;4068;42.158;24.732;2022-07-29T10:46:46;5.72;;;4.20;;
8050;SDS011;4068;42.158;24.732;2022-07-29T10:49:18;7.30;;;3.88;;
8050;SDS011;4068;42.158;24.732;2022-07-29T10:57:11;6.25;;;4.00;;
8050;SDS011;4068;42.158;24.732;2022-07-29T10:59:45;4.20;;;3.80;;
8050;SDS011;4068;42.158;24.732;2022-07-29T11:04:59;3.70;;;3.40;;
8050;SDS011;4068;42.158;24.732;2022-07-29T11:07:26;4.65;;;3.95;;
8050;SDS011;4068;42.158;24.732;2022-07-29T11:15:06;4.20;;;3.80;;
8050;SDS011;4068;42.158;24.732;2022-07-29T11:25:46;5.03;;;3.60;;
8050;SDS011;4068;42.158;24.732;2022-07-29T11:31:15;8.05;;;3.80;;
8050;SDS011;4068;42.158;24.732;2022-07-29T11:33:44;4.30;;;3.90;;
8050;SDS011;4068;42.158;24.732;2022-07-29T11:36:10;4.63;;;4.00;;
8050;SDS011;4068;42.158;24.732;2022-07-29T11:38:38;5.38;;;3.97;;
8050;SDS011;4068;42.158;24.732;2022-07-29T11:41:20;5.35;;;4.28;;
8050;SDS011;4068;42.158;24.732;2022-07-29T11:43:53;4.90;;;3.90;;
8050;SDS011;4068;42.158;24.732;2022-07-29T11:49:23;5.80;;;4.18;;
8050;SDS011;4068;42.158;24.732;2022-07-29T11:51:59;5.72;;;3.75;;
8050;SDS011;4068;42.158;24.732;2022-07-29T11:54:32;7.15;;;4.03;;
8050;SDS011;4068;42.158;24.732;2022-07-29T11:57:00;4.38;;;3.55;;
8050;SDS011;4068;42.158;24.732;2022-07-29T11:59:26;4.88;;;4.35;;
8050;SDS011;4068;42.158;24.732;2022-07-29T12:01:55;8.82;;;3.80;;
8050;SDS011;4068;42.158;24.732;2022-07-29T12:04:23;5.28;;;3.80;;
8050;SDS011;4068;42.158;24.732;2022-07-29T12:06:55;3.67;;;3.38;;
8050;SDS011;4068;42.158;24.732;2022-07-29T12:09:21;4.00;;;3.05;;
8050;SDS011;4068;42.158;24.732;2022-07-29T12:11:57;5.57;;;3.38;;
8050;SDS011;4068;42.158;24.732;2022-07-29T12:14:31;5.50;;;3.50;;
8050;SDS011;4068;42.158;24.732;2022-07-29T12:16:58;4.43;;;3.65;;
8050;SDS011;4068;42.158;24.732;2022-07-29T12:19:24;8.45;;;3.53;;
8050;SDS011;4068;42.158;24.732;2022-07-29T12:21:51;4.05;;;3.65;;
8050;SDS011;4068;42.158;24.732;2022-07-29T12:24:19;6.65;;;3.97;;
8050;SDS011;4068;42.158;24.732;2022-07-29T12:26:52;3.75;;;3.17;;
8050;SDS011;4068;42.158;24.732;2022-07-29T12:29:19;3.22;;;2.92;;
8050;SDS011;4068;42.158;24.732;2022-07-29T12:31:45;5.97;;;3.30;;
8050;SDS011;4068;42.158;24.732;2022-07-29T12:34:12;4.45;;;3.88;;
8050;SDS011;4068;42.158;24.732;2022-07-29T12:36:43;5.95;;;3.45;;
8050;SDS011;4068;42.158;24.732;2022-07-29T12:39:08;3.92;;;3.35;;
8050;SDS011;4068;42.158;24.732;2022-07-29T12:41:36;4.57;;;3.50;;
8050;SDS011;4068;42.158;24.732;2022-07-29T12:44:02;5.22;;;3.22;;
8050;SDS011;4068;42.158;24.732;2022-07-29T12:46:28;4.57;;;3.08;;
8050;SDS011;4068;42.158;24.732;2022-07-29T12:48:53;4.28;;;3.60;;
8050;SDS011;4068;42.158;24.732;2022-07-29T12:51:29;5.68;;;3.28;;
8050;SDS011;4068;42.158;24.732;2022-07-29T12:56:35;4.32;;;3.67;;
8050;SDS011;4068;42.158;24.732;2022-07-29T12:59:11;3.88;;;3.42;;
8050;SDS011;4068;42.158;24.732;2022-07-29T13:01:38;6.20;;;3.72;;
8050;SDS011;4068;42.158;24.732;2022-07-29T13:04:03;4.60;;;3.53;;
8050;SDS011;4068;42.158;24.732;2022-07-29T13:11:40;4.28;;;3.70;;
8050;SDS011;4068;42.158;24.732;2022-07-29T13:14:14;4.35;;;3.92;;
8050;SDS011;4068;42.158;24.732;2022-07-29T13:17:12;5.88;;;3.60;;
8050;SDS011;4068;42.158;24.732;2022-07-29T13:19:42;4.65;;;4.05;;
8050;SDS011;4068;42.158;24.732;2022-07-29T13:22:12;7.63;;;4.18;;
8050;SDS011;4068;42.158;24.732;2022-07-29T13:24:50;4.35;;;3.95;;
8050;SDS011;4068;42.158;24.732;2022-07-29T13:27:17;5.78;;;4.60;;
8050;SDS011;4068;42.158;24.732;2022-07-29T13:29:43;5.80;;;4.18;;
8050;SDS011;4068;42.158;24.732;2022-07-29T13:32:09;8.93;;;4.70;;
8050;SDS011;4068;42.158;24.732;2022-07-29T13:34:34;7.53;;;5.15;;
8050;SDS011;4068;42.158;24.732;2022-07-29T13:37:00;4.80;;;4.28;;
8050;SDS011;4068;42.158;24.732;2022-07-29T13:39:25;5.80;;;4.60;;
8050;SDS011;4068;42.158;24.732;2022-07-29T13:41:51;4.93;;;4.03;;
8050;SDS011;4068;42.158;24.732;2022-07-29T13:44:16;5.18;;;4.13;;
8050;SDS011;4068;42.158;24.732;2022-07-29T13:46:42;8.40;;;4.35;;
8050;SDS011;4068;42.158;24.732;2022-07-29T13:49:07;9.55;;;4.38;;
8050;SDS011;4068;42.158;24.732;2022-07-29T13:51:33;4.45;;;4.03;;
8050;SDS011;4068;42.158;24.732;2022-07-29T13:53:58;4.05;;;3.65;;
8050;SDS011;4068;42.158;24.732;2022-07-29T13:56:23;7.45;;;4.25;;
8050;SDS011;4068;42.158;24.732;2022-07-29T13:58:49;6.10;;;4.20;;
8050;SDS011;4068;42.158;24.732;2022-07-29T14:01:14;4.43;;;3.85;;
8050;SDS011;4068;42.158;24.732;2022-07-29T14:03:40;6.75;;;3.92;;
8050;SDS011;4068;42.158;24.732;2022-07-29T14:06:07;4.32;;;3.75;;
8050;SDS011;4068;42.158;24.732;2022-07-29T14:08:33;7.38;;;4.50;;
8050;SDS011;4068;42.158;24.732;2022-07-29T14:10:59;5.43;;;4.03;;
8050;SDS011;4068;42.158;24.732;2022-07-29T14:13:25;7.00;;;4.40;;
8050;SDS011;4068;42.158;24.732;2022-07-29T14:15:50;6.57;;;3.97;;
8050;SDS011;4068;42.158;24.732;2022-07-29T14:18:15;6.45;;;4.18;;
8050;SDS011;4068;42.158;24.732;2022-07-29T14:20:41;4.03;;;3.63;;
8050;SDS011;4068;42.158;24.732;2022-07-29T14:23:06;5.30;;;4.03;;
8050;SDS011;4068;42.158;24.732;2022-07-29T14:25:32;5.65;;;3.83;;
8050;SDS011;4068;42.158;24.732;2022-07-29T14:27:57;4.30;;;3.10;;
8050;SDS011;4068;42.158;24.732;2022-07-29T14:30:23;4.72;;;3.63;;
8050;SDS011;4068;42.158;24.732;2022-07-29T14:32:48;9.65;;;3.78;;
8050;SDS011;4068;42.158;24.732;2022-07-29T14:35:14;5.72;;;3.47;;
8050;SDS011;4068;42.158;24.732;2022-07-29T14:37:39;5.38;;;3.80;;
8050;SDS011;4068;42.158;24.732;2022-07-29T14:40:05;3.75;;;3.33;;
8050;SDS011;4068;42.158;24.732;2022-07-29T14:42:31;6.95;;;3.95;;
8050;SDS011;4068;42.158;24.732;2022-07-29T14:44:57;3.90;;;3.50;;
8050;SDS011;4068;42.158;24.732;2022-07-29T14:47:22;4.78;;;3.35;;
8050;SDS011;4068;42.158;24.732;2022-07-29T14:49:48;3.75;;;3.33;;
8050;SDS011;4068;42.158;24.732;2022-07-29T14:52:14;4.35;;;3.70;;
8050;SDS011;4068;42.158;24.732;2022-07-29T14:54:40;7.10;;;3.58;;
8050;SDS011;4068;42.158;24.732;2022-07-29T14:57:05;4.28;;;3.83;;
8050;SDS011;4068;42.158;24.732;2022-07-29T14:59:30;6.55;;;3.50;;
8050;SDS011;4068;42.158;24.732;2022-07-29T15:01:56;5.22;;;3.38;;
8050;SDS011;4068;42.158;24.732;2022-07-29T15:04:21;3.72;;;3.40;;
8050;SDS011;4068;42.158;24.732;2022-07-29T15:06:47;6.30;;;4.28;;
8050;SDS011;4068;42.158;24.732;2022-07-29T15:09:13;4.15;;;3.70;;
8050;SDS011;4068;42.158;24.732;2022-07-29T15:11:38;4.22;;;3.55;;
8050;SDS011;4068;42.158;24.732;2022-07-29T15:14:04;5.95;;;3.72;;
8050;SDS011;4068;42.158;24.732;2022-07-29T15:16:30;5.65;;;3.85;;
8050;SDS011;4068;42.158;24.732;2022-07-29T15:18:56;4.50;;;3.60;;
8050;SDS011;4068;42.158;24.732;2022-07-29T15:21:22;5.50;;;3.67;;
8050;SDS011;4068;42.158;24.732;2022-07-29T15:23:48;4.10;;;3.70;;
8050;SDS011;4068;42.158;24.732;2022-07-29T15:26:13;6.30;;;3.60;;
8050;SDS011;4068;42.158;24.732;2022-07-29T15:28:39;8.68;;;3.83;;
8050;SDS011;4068;42.158;24.732;2022-07-29T15:31:05;3.80;;;3.38;;
8050;SDS011;4068;42.158;24.732;2022-07-29T15:33:30;4.75;;;3.50;;
8050;SDS011;4068;42.158;24.732;2022-07-29T15:35:56;4.07;;;3.58;;
8050;SDS011;4068;42.158;24.732;2022-07-29T15:38:21;4.35;;;3.50;;
8050;SDS011;4068;42.158;24.732;2022-07-29T15:40:47;4.15;;;3.58;;
8050;SDS011;4068;42.158;24.732;2022-07-29T15:43:12;3.97;;;3.55;;
8050;SDS011;4068;42.158;24.732;2022-07-29T15:45:39;5.15;;;3.60;;
8050;SDS011;4068;42.158;24.732;2022-07-29T15:48:05;3.97;;;3.53;;
8050;SDS011;4068;42.158;24.732;2022-07-29T15:50:32;5.28;;;3.83;;
8050;SDS011;4068;42.158;24.732;2022-07-29T15:52:58;4.30;;;3.42;;
8050;SDS011;4068;42.158;24.732;2022-07-29T15:55:24;8.02;;;4.15;;
8050;SDS011;4068;42.158;24.732;2022-07-29T15:57:49;5.80;;;3.75;;
8050;SDS011;4068;42.158;24.732;2022-07-29T16:00:15;6.43;;;4.30;;
8050;SDS011;4068;42.158;24.732;2022-07-29T16:02:42;11.27;;;4.18;;
8050;SDS011;4068;42.158;24.732;2022-07-29T16:05:08;7.72;;;4.07;;